Terminal Aerodrome Forecast
Issued by NWS

Home | Current Version | Previous Version | Text Only | Print | Product List | Glossary On
Versions: 1 2 3 4 5 6 7 8 9 10 11 12 13 14
000
FTUS43 KSGF 030548 AAA
TAFJLN
TAF AMD
KJLN 030548Z 0306/0406 06006KT P6SM OVC060
     FM031300 10006KT P6SM VCSH OVC050
     FM031800 12008KT P6SM VCSH OVC040
     FM032100 10006KT 4SM -SHRA OVC035
     FM040100 10006KT 2SM -SHRA BR OVC015=

USA.gov is the U.S. government's official web portal to all federal, state and local government web resources and services.